createdAt,value
2023-04-13T00:00:12.600Z,20.0
2023-04-13T00:01:12.655Z,22.4
2023-04-13T00:02:12.732Z,23.7
2023-04-13T00:03:12.963Z,21.0
2023-04-13T00:04:12.691Z,21.5
2023-04-13T00:05:12.679Z,22.1
2023-04-13T00:06:12.691Z,26.0
2023-04-13T00:07:12.814Z,25.3
2023-04-13T00:08:12.658Z,21.5
2023-04-13T00:09:12.635Z,23.8
2023-04-13T00:10:12.796Z,26.3
2023-04-13T00:11:12.672Z,23.7
2023-04-13T00:12:12.604Z,23.7
2023-04-13T00:13:12.682Z,24.7
2023-04-13T00:14:12.631Z,24.8
2023-04-13T00:15:12.671Z,27.3
2023-04-13T00:16:12.696Z,26.7
2023-04-13T00:17:12.659Z,27.8
2023-04-13T00:18:13.634Z,31.5
2023-04-13T00:19:12.637Z,29.5
2023-04-13T00:20:13.432Z,63.7
2023-04-13T00:21:12.605Z,126.7
2023-04-13T00:22:12.644Z,85.3
2023-04-13T00:23:12.678Z,97.1
2023-04-13T00:24:12.670Z,81.9
2023-04-13T00:25:12.579Z,65.8
2023-04-13T00:26:12.573Z,48.6
2023-04-13T00:27:12.614Z,30.7
2023-04-13T00:28:12.696Z,27.2
2023-04-13T00:29:12.567Z,26.8
2023-04-13T00:30:12.610Z,24.8
2023-04-13T00:31:12.806Z,34.1
2023-04-13T00:32:12.555Z,31.5
2023-04-13T00:33:13.368Z,64.1
2023-04-13T00:34:13.368Z,144.3
2023-04-13T00:35:13.378Z,234.7
2023-04-13T00:36:13.293Z,168.0
2023-04-13T00:37:13.305Z,118.9
2023-04-13T00:38:13.261Z,122.4
2023-04-13T00:39:13.363Z,105.8
2023-04-13T00:40:12.624Z,105.6
2023-04-13T00:41:13.244Z,98.1
2023-04-13T00:42:13.330Z,129.1
2023-04-13T00:43:14.357Z,155.8
2023-04-13T00:44:13.305Z,153.9
2023-04-13T00:45:13.332Z,140.4
2023-04-13T00:46:13.314Z,121.6
2023-04-13T00:47:13.354Z,119.8
2023-04-13T00:48:13.253Z,136.0
2023-04-13T00:49:13.277Z,158.1
2023-04-13T00:50:13.230Z,137.2
2023-04-13T00:51:13.242Z,146.1
2023-04-13T00:52:13.247Z,139.0
2023-04-13T00:53:13.662Z,111.7
2023-04-13T00:54:12.497Z,106.8
2023-04-13T00:55:12.527Z,89.2
2023-04-13T00:56:12.603Z,92.5
2023-04-13T00:57:12.578Z,84.2
2023-04-13T00:58:12.518Z,72.1
2023-04-13T00:59:12.534Z,77.1
2023-04-13T01:00:12.562Z,77.1
2023-04-13T01:01:12.622Z,69.2
2023-04-13T01:02:14.333Z,73.2
2023-04-13T01:03:13.608Z,115.8
2023-04-13T01:04:13.304Z,135.7
2023-04-13T01:05:13.262Z,140.8
2023-04-13T01:06:12.597Z,139.9
2023-04-13T01:07:12.589Z,93.8
2023-04-13T01:08:12.554Z,75.5
2023-04-13T01:09:12.537Z,48.2
2023-04-13T01:10:12.525Z,37.7
2023-04-13T01:11:12.547Z,37.8
2023-04-13T01:12:12.682Z,30.4
2023-04-13T01:13:12.567Z,30.0
2023-04-13T01:14:12.510Z,26.8
2023-04-13T01:15:12.488Z,27.5
2023-04-13T01:16:12.512Z,27.6
2023-04-13T01:17:12.677Z,30.2
2023-04-13T01:18:12.539Z,29.3
2023-04-13T01:19:12.526Z,29.1
2023-04-13T01:20:12.495Z,29.6
2023-04-13T01:21:12.513Z,29.6
2023-04-13T01:22:12.487Z,26.5
2023-04-13T01:23:12.535Z,26.0
2023-04-13T01:24:12.523Z,26.8
2023-04-13T01:25:12.490Z,24.8
2023-04-13T01:26:12.501Z,24.9
2023-04-13T01:27:12.524Z,26.3
2023-04-13T01:28:12.456Z,26.9
2023-04-13T01:29:12.566Z,24.3
2023-04-13T01:30:12.492Z,26.3
2023-04-13T01:31:12.485Z,28.5
2023-04-13T01:32:12.504Z,36.2
2023-04-13T01:33:12.528Z,40.5
2023-04-13T01:34:12.522Z,37.3
2023-04-13T01:35:12.466Z,42.4
2023-04-13T01:36:12.547Z,46.6
2023-04-13T01:37:12.449Z,48.5
2023-04-13T01:38:12.482Z,57.5
2023-04-13T01:39:12.472Z,57.8
2023-04-13T01:40:12.538Z,50.8
2023-04-13T01:41:12.562Z,45.9
2023-04-13T01:42:12.466Z,42.2
2023-04-13T01:43:12.454Z,45.4
2023-04-13T01:44:12.475Z,41.2
2023-04-13T01:45:12.499Z,47.0
2023-04-13T01:46:12.527Z,45.2
2023-04-13T01:47:12.443Z,43.0
2023-04-13T01:48:12.484Z,44.5
2023-04-13T01:49:12.468Z,45.0
2023-04-13T01:50:12.636Z,42.5
2023-04-13T01:51:12.535Z,46.5
2023-04-13T01:52:12.441Z,46.3
2023-04-13T01:53:12.462Z,44.9
2023-04-13T01:54:12.473Z,42.4
2023-04-13T01:55:12.456Z,42.5
2023-04-13T01:56:12.479Z,45.7
2023-04-13T01:57:12.464Z,40.9
2023-04-13T01:58:12.448Z,34.1
2023-04-13T01:59:12.420Z,31.7
2023-04-13T02:00:12.475Z,31.2
2023-04-13T02:01:12.496Z,98.4
2023-04-13T02:02:13.255Z,82.0
2023-04-13T02:03:13.265Z,101.0
2023-04-13T02:04:13.225Z,119.5
2023-04-13T02:05:12.400Z,119.8
2023-04-13T02:06:12.472Z,66.4
2023-04-13T02:07:12.525Z,46.6
2023-04-13T02:08:12.420Z,39.9
2023-04-13T02:09:12.416Z,35.6
2023-04-13T02:10:12.407Z,37.5
2023-04-13T02:11:13.135Z,41.9
2023-04-13T02:12:13.213Z,112.5
2023-04-13T02:13:13.181Z,124.9
2023-04-13T02:14:12.413Z,110.7
2023-04-13T02:15:12.377Z,75.2
2023-04-13T02:16:12.424Z,70.2
2023-04-13T02:17:12.417Z,66.3
2023-04-13T02:18:12.446Z,78.2
2023-04-13T02:19:12.387Z,61.9
2023-04-13T02:20:12.399Z,62.0
2023-04-13T02:21:12.383Z,53.8
2023-04-13T02:22:12.407Z,57.8
2023-04-13T02:23:12.436Z,54.3
2023-04-13T02:24:12.796Z,54.1
2023-04-13T02:25:12.464Z,49.9
2023-04-13T02:26:12.581Z,54.8
2023-04-13T02:27:12.681Z,51.6
2023-04-13T02:28:12.453Z,45.2
2023-04-13T02:29:12.414Z,46.5
2023-04-13T02:30:12.371Z,43.9
2023-04-13T02:31:12.443Z,44.6
2023-04-13T02:32:12.523Z,38.2
2023-04-13T02:33:12.423Z,36.2
2023-04-13T02:34:12.349Z,39.1
2023-04-13T02:35:12.351Z,41.6
2023-04-13T02:36:12.356Z,38.0
2023-04-13T02:37:12.414Z,41.5
2023-04-13T02:38:12.390Z,44.8
2023-04-13T02:39:12.399Z,55.2
2023-04-13T02:40:12.378Z,42.7
2023-04-13T02:41:12.400Z,38.3
2023-04-13T02:42:12.371Z,37.0
2023-04-13T02:43:12.419Z,44.2
2023-04-13T02:44:12.381Z,43.7
2023-04-13T02:45:12.348Z,39.8
2023-04-13T02:46:12.513Z,50.0
2023-04-13T02:47:12.386Z,43.7
2023-04-13T02:48:12.363Z,43.2
2023-04-13T02:49:12.372Z,45.0
2023-04-13T02:50:12.414Z,46.4
2023-04-13T02:51:12.318Z,42.4
2023-04-13T02:52:12.441Z,40.9
2023-04-13T02:53:12.373Z,38.3
2023-04-13T02:54:12.439Z,43.2
2023-04-13T02:55:12.325Z,41.7
2023-04-13T02:56:12.301Z,39.8
2023-04-13T02:57:12.546Z,37.5
2023-04-13T02:58:12.618Z,41.7
2023-04-13T02:59:12.319Z,42.2
2023-04-13T03:00:12.311Z,38.1
2023-04-13T03:01:12.339Z,38.3
2023-04-13T03:02:12.452Z,40.8
2023-04-13T03:03:12.382Z,35.8
2023-04-13T03:04:12.376Z,36.7
2023-04-13T03:05:12.355Z,36.9
2023-04-13T03:06:12.333Z,41.6
2023-04-13T03:07:12.404Z,41.7
2023-04-13T03:08:12.297Z,38.5
2023-04-13T03:09:12.372Z,37.4
2023-04-13T03:10:12.321Z,39.9
2023-04-13T03:11:12.290Z,44.0
2023-04-13T03:12:12.365Z,43.0
2023-04-13T03:13:12.273Z,36.0
2023-04-13T03:14:12.411Z,36.7
2023-04-13T03:15:12.308Z,36.5
2023-04-13T03:16:12.316Z,34.7
2023-04-13T03:17:12.656Z,33.7
2023-04-13T03:18:12.269Z,33.5
2023-04-13T03:19:12.461Z,34.3
2023-04-13T03:20:12.295Z,36.0
2023-04-13T03:21:12.290Z,32.1
2023-04-13T03:22:12.378Z,32.1
2023-04-13T03:23:12.303Z,35.4
2023-04-13T03:24:12.278Z,32.9
2023-04-13T03:25:12.285Z,36.4
2023-04-13T03:26:12.284Z,35.3
2023-04-13T03:27:12.310Z,30.9
2023-04-13T03:28:13.364Z,32.0
2023-04-13T03:29:12.238Z,34.0
2023-04-13T03:30:12.378Z,40.6
2023-04-13T03:31:12.338Z,39.8
2023-04-13T03:32:12.291Z,44.4
2023-04-13T03:33:12.285Z,41.5
2023-04-13T03:34:12.278Z,65.3
2023-04-13T03:35:12.269Z,76.5
2023-04-13T03:36:12.244Z,67.8
2023-04-13T03:37:12.285Z,79.2
2023-04-13T03:38:12.251Z,79.9
2023-04-13T03:39:12.291Z,95.9
2023-04-13T03:40:12.289Z,91.1
2023-04-13T03:41:13.012Z,97.5
2023-04-13T03:42:13.097Z,122.1
2023-04-13T03:43:12.969Z,111.9
2023-04-13T03:44:12.290Z,101.8
2023-04-13T03:45:12.222Z,90.8
2023-04-13T03:46:12.233Z,83.7
2023-04-13T03:47:12.234Z,72.0
2023-04-13T03:48:12.290Z,64.0
2023-04-13T03:49:12.280Z,75.2
2023-04-13T03:50:12.265Z,65.6
2023-04-13T03:51:12.203Z,52.7
2023-04-13T03:52:12.259Z,48.7
2023-04-13T03:53:12.277Z,46.3
2023-04-13T03:54:12.257Z,45.2
2023-04-13T03:55:12.437Z,48.5
2023-04-13T03:56:12.195Z,44.3
2023-04-13T03:57:12.364Z,50.3
2023-04-13T03:58:12.261Z,44.7
2023-04-13T03:59:12.236Z,45.0
2023-04-13T04:00:12.270Z,40.5
2023-04-13T04:01:12.242Z,38.3
2023-04-13T04:02:12.463Z,40.7
2023-04-13T04:03:12.373Z,39.2
2023-04-13T04:04:12.348Z,41.1
2023-04-13T04:05:12.329Z,38.6
2023-04-13T04:06:12.402Z,39.3
2023-04-13T04:07:12.231Z,38.6
2023-04-13T04:08:12.176Z,45.2
2023-04-13T04:09:12.173Z,42.0
2023-04-13T04:10:12.212Z,41.4
2023-04-13T04:11:12.199Z,40.4
2023-04-13T04:12:14.404Z,42.6
2023-04-13T04:13:12.242Z,40.9
2023-04-13T04:14:12.256Z,49.5
2023-04-13T04:15:12.689Z,59.3
2023-04-13T04:16:12.935Z,69.9
2023-04-13T04:17:14.234Z,138.7
2023-04-13T04:18:12.982Z,281.9
2023-04-13T04:19:13.002Z,207.6
2023-04-13T04:20:12.882Z,187.3
2023-04-13T04:21:12.905Z,168.2
2023-04-13T04:22:12.898Z,170.4
2023-04-13T04:23:12.957Z,251.5
2023-04-13T04:24:12.719Z,188.0
2023-04-13T04:25:12.156Z,60.3
2023-04-13T04:26:12.183Z,51.8
2023-04-13T04:27:12.241Z,46.6
2023-04-13T04:28:14.330Z,45.2
2023-04-13T04:29:12.224Z,43.3
2023-04-13T04:30:12.138Z,43.9
2023-04-13T04:31:12.242Z,40.1
2023-04-13T04:32:12.505Z,41.7
2023-04-13T04:33:12.192Z,47.7
2023-04-13T04:34:12.388Z,45.8
2023-04-13T04:35:12.171Z,44.4
2023-04-13T04:36:12.332Z,46.7
2023-04-13T04:37:20.100Z,47.0
2023-04-13T04:38:12.203Z,57.0
2023-04-13T04:39:12.143Z,60.3
2023-04-13T04:40:12.150Z,57.7
2023-04-13T04:41:12.099Z,66.0
2023-04-13T04:42:12.167Z,64.6
2023-04-13T04:43:12.163Z,61.5
2023-04-13T04:44:12.231Z,52.8
2023-04-13T04:45:12.244Z,55.2
2023-04-13T04:46:13.550Z,53.7
2023-04-13T04:47:12.145Z,54.8
2023-04-13T04:48:12.126Z,54.1
2023-04-13T04:49:12.161Z,50.8
2023-04-13T04:50:12.089Z,44.2
2023-04-13T04:51:12.136Z,49.7
2023-04-13T04:52:12.151Z,47.8
2023-04-13T04:53:12.159Z,55.5
2023-04-13T04:54:12.157Z,56.8
2023-04-13T04:55:12.120Z,52.9
2023-04-13T04:56:12.231Z,53.5
2023-04-13T04:57:12.198Z,57.3
2023-04-13T04:58:12.150Z,57.4
2023-04-13T04:59:12.105Z,65.5
2023-04-13T05:00:12.103Z,65.3
2023-04-13T05:01:12.156Z,51.9
2023-04-13T05:02:12.194Z,55.1
2023-04-13T05:03:12.165Z,55.4
2023-04-13T05:04:12.196Z,47.2
2023-04-13T05:05:12.178Z,48.4
2023-04-13T05:06:12.095Z,51.3
2023-04-13T05:07:12.529Z,49.7
2023-04-13T05:08:12.076Z,50.9
2023-04-13T05:09:12.123Z,53.0
2023-04-13T05:10:12.090Z,48.9
2023-04-13T05:11:12.086Z,53.3
2023-04-13T05:12:12.104Z,61.4
2023-04-13T05:13:12.078Z,54.4
2023-04-13T05:14:12.059Z,57.0
2023-04-13T05:15:12.102Z,54.4
2023-04-13T05:16:12.100Z,58.4
2023-04-13T05:17:12.109Z,70.6
2023-04-13T05:18:12.217Z,65.7
2023-04-13T05:19:12.062Z,62.8
2023-04-13T05:20:12.112Z,58.2
2023-04-13T05:21:12.082Z,61.0
2023-04-13T05:22:12.100Z,65.3
2023-04-13T05:23:12.079Z,80.0
2023-04-13T05:24:12.097Z,85.1
2023-04-13T05:25:12.068Z,94.7
2023-04-13T05:26:12.097Z,74.7
2023-04-13T05:27:12.058Z,73.9
2023-04-13T05:28:12.045Z,64.8
2023-04-13T05:29:12.209Z,60.3
2023-04-13T05:30:12.117Z,63.7
2023-04-13T05:31:12.083Z,60.2
2023-04-13T05:32:12.069Z,71.8
2023-04-13T05:33:12.066Z,65.1
2023-04-13T05:34:12.067Z,78.9
2023-04-13T05:35:12.034Z,76.0
2023-04-13T05:36:12.088Z,61.7
2023-04-13T05:37:12.049Z,57.4
2023-04-13T05:38:12.038Z,49.5
2023-04-13T05:39:12.080Z,51.9
2023-04-13T05:40:12.173Z,48.7
2023-04-13T05:41:12.050Z,50.5
2023-04-13T05:42:19.704Z,57.2
2023-04-13T05:43:12.019Z,55.5
2023-04-13T05:44:12.046Z,55.8
2023-04-13T05:45:12.162Z,50.4
2023-04-13T05:46:12.087Z,51.2
2023-04-13T05:47:12.101Z,60.6
2023-04-13T05:48:12.089Z,51.8
2023-04-13T05:49:12.061Z,49.5
2023-04-13T05:50:12.046Z,48.2
2023-04-13T05:51:12.169Z,48.4
2023-04-13T05:52:12.023Z,47.4
2023-04-13T05:53:12.037Z,47.6
2023-04-13T05:54:12.037Z,58.6
2023-04-13T05:55:12.030Z,53.7
2023-04-13T05:56:12.030Z,44.8
2023-04-13T05:57:12.017Z,44.6
2023-04-13T05:58:12.013Z,50.5
2023-04-13T05:59:12.022Z,47.2
2023-04-13T06:00:12.010Z,47.4
2023-04-13T06:01:12.048Z,47.8
2023-04-13T06:02:12.281Z,48.4
2023-04-13T06:03:12.273Z,43.0
2023-04-13T06:04:12.146Z,47.5
2023-04-13T06:05:12.008Z,46.3
2023-04-13T06:06:12.005Z,40.9
2023-04-13T06:07:12.060Z,45.3
2023-04-13T06:08:12.062Z,42.9
2023-04-13T06:09:12.008Z,41.3
2023-04-13T06:10:11.989Z,40.5
2023-04-13T06:11:11.959Z,43.4
2023-04-13T06:12:12.027Z,59.1
2023-04-13T06:13:12.183Z,47.0
2023-04-13T06:14:11.999Z,42.8
2023-04-13T06:15:11.946Z,40.2
2023-04-13T06:16:11.977Z,41.5
2023-04-13T06:17:12.034Z,47.4
2023-04-13T06:18:12.070Z,38.9
2023-04-13T06:19:12.062Z,39.9
2023-04-13T06:20:11.990Z,48.9
2023-04-13T06:21:11.969Z,50.2
2023-04-13T06:22:12.010Z,38.6
2023-04-13T06:23:12.093Z,36.8
2023-04-13T06:24:12.185Z,39.2
2023-04-13T06:25:11.988Z,41.3
2023-04-13T06:26:12.033Z,41.8
2023-04-13T06:27:11.995Z,44.0
2023-04-13T06:28:11.983Z,48.2
2023-04-13T06:29:11.970Z,36.4
2023-04-13T06:30:12.092Z,35.5
2023-04-13T06:31:13.501Z,39.6
2023-04-13T06:32:12.000Z,38.1
2023-04-13T06:33:12.011Z,32.6
2023-04-13T06:34:11.939Z,37.6
2023-04-13T06:35:12.126Z,32.7
2023-04-13T06:36:11.941Z,33.7
2023-04-13T06:37:11.949Z,38.0
2023-04-13T06:38:11.992Z,38.9
2023-04-13T06:39:11.985Z,34.3
2023-04-13T06:40:12.088Z,40.5
2023-04-13T06:41:12.164Z,38.0
2023-04-13T06:42:12.128Z,42.2
2023-04-13T06:43:26.350Z,40.4
2023-04-13T06:44:11.939Z,37.1
2023-04-13T06:45:11.889Z,39.4
2023-04-13T06:46:12.151Z,43.8
2023-04-13T06:47:12.014Z,43.9
2023-04-13T06:48:11.948Z,37.5
2023-04-13T06:49:11.938Z,39.4
2023-04-13T06:50:11.933Z,36.9
2023-04-13T06:51:11.915Z,35.1
2023-04-13T06:52:11.915Z,31.7
2023-04-13T06:53:11.929Z,32.3
2023-04-13T06:54:11.995Z,32.3
2023-04-13T06:55:11.923Z,38.4
2023-04-13T06:56:11.934Z,33.6
2023-04-13T06:57:11.962Z,36.1
2023-04-13T06:58:11.927Z,33.5
2023-04-13T06:59:11.924Z,30.2
2023-04-13T07:00:25.996Z,36.7
2023-04-13T07:01:11.994Z,36.4
2023-04-13T07:02:11.990Z,32.5
2023-04-13T07:03:12.076Z,31.6
2023-04-13T07:04:11.910Z,36.4
2023-04-13T07:05:11.995Z,32.8
2023-04-13T07:06:11.905Z,31.7
2023-04-13T07:07:12.161Z,36.1
2023-04-13T07:08:11.926Z,38.9
2023-04-13T07:09:11.900Z,31.0
2023-04-13T07:10:11.904Z,31.4
2023-04-13T07:11:11.903Z,26.1
2023-04-13T07:12:11.938Z,24.8
2023-04-13T07:13:12.191Z,27.2
2023-04-13T07:14:11.922Z,23.2
2023-04-13T07:15:11.976Z,27.9
2023-04-13T07:16:12.032Z,26.2
2023-04-13T07:17:13.245Z,25.8
2023-04-13T07:18:12.084Z,26.0
2023-04-13T07:19:11.886Z,26.0
2023-04-13T07:20:11.937Z,20.9
2023-04-13T07:21:11.934Z,22.9
2023-04-13T07:22:11.859Z,27.5
2023-04-13T07:23:11.944Z,18.6
2023-04-13T07:24:11.942Z,20.4
2023-04-13T07:25:11.931Z,19.3
2023-04-13T07:26:11.847Z,19.7
2023-04-13T07:27:12.025Z,18.5
2023-04-13T07:28:11.865Z,19.2
2023-04-13T07:29:12.071Z,16.3
2023-04-13T07:30:11.973Z,18.0
2023-04-13T07:31:11.942Z,14.2
2023-04-13T07:32:11.921Z,12.5
2023-04-13T07:33:11.909Z,12.1
2023-04-13T07:34:11.844Z,14.4
2023-04-13T07:35:11.926Z,10.5
2023-04-13T07:36:11.881Z,15.1
2023-04-13T07:37:11.879Z,9.0
2023-04-13T07:38:11.970Z,11.4
2023-04-13T07:39:11.858Z,9.9
2023-04-13T07:40:12.999Z,8.2
2023-04-13T07:41:11.964Z,8.7
2023-04-13T07:42:11.872Z,8.3
2023-04-13T07:43:11.882Z,7.3
2023-04-13T07:44:11.828Z,7.6
2023-04-13T07:45:11.836Z,8.7
2023-04-13T07:46:11.961Z,7.7
2023-04-13T07:47:11.848Z,8.1
2023-04-13T07:48:11.991Z,10.6
2023-04-13T07:49:11.814Z,9.8
2023-04-13T07:50:11.887Z,9.5
2023-04-13T07:51:11.820Z,7.4
2023-04-13T07:52:11.818Z,7.1
2023-04-13T07:53:11.903Z,6.4
2023-04-13T07:54:11.909Z,7.8
2023-04-13T07:55:11.837Z,8.6
2023-04-13T07:56:11.843Z,8.6
2023-04-13T07:57:11.854Z,7.6
2023-04-13T07:58:11.803Z,7.0
2023-04-13T07:59:11.939Z,6.7
2023-04-13T08:00:11.775Z,7.3
2023-04-13T08:01:11.850Z,17.0
2023-04-13T08:02:12.031Z,8.6
2023-04-13T08:03:11.883Z,7.5
2023-04-13T08:04:12.009Z,7.0
2023-04-13T08:05:12.028Z,9.6
2023-04-13T08:06:11.817Z,8.2
2023-04-13T08:07:11.847Z,6.9
2023-04-13T08:08:11.826Z,9.1
2023-04-13T08:09:11.951Z,8.1
2023-04-13T08:10:11.858Z,6.9
2023-04-13T08:11:11.789Z,7.4
2023-04-13T08:12:11.774Z,7.2
2023-04-13T08:13:12.005Z,7.5
2023-04-13T08:14:12.004Z,7.6
2023-04-13T08:15:11.764Z,11.1
2023-04-13T08:16:11.777Z,8.2
2023-04-13T08:17:11.803Z,8.3
2023-04-13T08:18:11.867Z,9.3
2023-04-13T08:19:11.797Z,6.3
2023-04-13T08:20:11.815Z,8.3
2023-04-13T08:21:11.777Z,6.7
2023-04-13T08:22:11.777Z,9.8
2023-04-13T08:23:12.471Z,8.8
2023-04-13T08:24:11.773Z,9.7
2023-04-13T08:25:11.797Z,7.0
2023-04-13T08:26:11.766Z,8.4
2023-04-13T08:27:11.799Z,7.5
2023-04-13T08:28:11.781Z,6.4
2023-04-13T08:29:11.784Z,8.2
2023-04-13T08:30:11.785Z,6.7
2023-04-13T08:31:11.806Z,7.4
2023-04-13T08:32:11.856Z,7.4
2023-04-13T08:33:11.764Z,8.4
2023-04-13T08:34:11.819Z,7.6
2023-04-13T08:35:11.958Z,7.6
2023-04-13T08:36:11.740Z,7.6
2023-04-13T08:37:11.793Z,6.4
2023-04-13T08:38:11.754Z,8.7
2023-04-13T08:39:11.786Z,8.4
2023-04-13T08:40:11.750Z,9.4
2023-04-13T08:41:11.774Z,7.2
2023-04-13T08:42:11.783Z,6.7
2023-04-13T08:43:11.812Z,8.0
2023-04-13T08:44:11.886Z,11.4
2023-04-13T08:45:11.822Z,8.7
2023-04-13T08:46:11.954Z,8.5
2023-04-13T08:47:11.938Z,6.7
2023-04-13T08:48:11.809Z,7.7
2023-04-13T08:49:11.792Z,6.3
2023-04-13T08:50:11.781Z,10.4
2023-04-13T08:51:11.755Z,8.5
2023-04-13T08:52:12.683Z,9.1
2023-04-13T08:53:11.745Z,8.9
2023-04-13T08:54:11.765Z,10.3
2023-04-13T08:55:11.702Z,9.0
2023-04-13T08:56:11.763Z,15.9
2023-04-13T08:57:11.943Z,7.3
2023-04-13T08:58:11.780Z,7.5
2023-04-13T08:59:11.760Z,7.7
2023-04-13T09:00:11.737Z,9.7
2023-04-13T09:01:11.792Z,11.0
2023-04-13T09:02:12.140Z,10.0
2023-04-13T09:03:13.515Z,10.7
2023-04-13T09:04:12.204Z,10.3
2023-04-13T09:05:11.874Z,11.3
2023-04-13T09:06:11.783Z,9.2
2023-04-13T09:07:11.714Z,11.0
2023-04-13T09:08:11.889Z,10.0
2023-04-13T09:09:11.849Z,9.2
2023-04-13T09:10:11.698Z,9.0
2023-04-13T09:11:11.745Z,10.9
2023-04-13T09:12:11.786Z,7.5
2023-04-13T09:13:11.710Z,8.6
2023-04-13T09:14:11.808Z,9.5
2023-04-13T09:15:11.689Z,8.5
2023-04-13T09:16:11.862Z,9.1
2023-04-13T09:17:11.801Z,8.4
2023-04-13T09:18:11.990Z,9.8
2023-04-13T09:19:11.935Z,8.5
2023-04-13T09:20:11.756Z,10.3
2023-04-13T09:21:11.726Z,8.9
2023-04-13T09:22:11.689Z,8.3
2023-04-13T09:23:11.710Z,9.5
2023-04-13T09:24:11.730Z,9.9
2023-04-13T09:25:11.731Z,10.5
2023-04-13T09:26:11.666Z,12.2
2023-04-13T09:27:11.793Z,14.7
2023-04-13T09:28:11.737Z,7.8
2023-04-13T09:29:11.816Z,16.4
2023-04-13T09:30:11.907Z,12.4
2023-04-13T09:31:11.748Z,10.3
2023-04-13T09:32:11.669Z,11.0
2023-04-13T09:33:11.939Z,12.3
2023-04-13T09:34:11.789Z,14.1
2023-04-13T09:35:11.700Z,8.6
2023-04-13T09:36:11.682Z,14.8
2023-04-13T09:38:11.694Z,9.6
2023-04-13T09:39:11.735Z,8.2
2023-04-13T09:40:11.722Z,8.5
2023-04-13T09:41:11.846Z,8.5
2023-04-13T09:42:11.689Z,10.1
2023-04-13T09:43:11.665Z,13.0
2023-04-13T09:44:11.674Z,12.5
2023-04-13T09:45:11.716Z,10.0
2023-04-13T09:46:11.819Z,11.6
2023-04-13T09:47:11.648Z,9.7
2023-04-13T09:48:11.655Z,8.1
2023-04-13T09:49:11.994Z,12.0
2023-04-13T09:50:11.714Z,12.5
2023-04-13T09:51:11.705Z,13.4
2023-04-13T09:52:11.758Z,8.9
2023-04-13T09:53:11.654Z,11.1
2023-04-13T09:54:11.720Z,10.8
2023-04-13T09:55:13.291Z,10.7
2023-04-13T09:56:11.642Z,14.1
2023-04-13T09:57:11.646Z,9.8
2023-04-13T09:58:11.726Z,10.4
2023-04-13T09:59:11.680Z,17.1
2023-04-13T10:00:11.853Z,12.6
2023-04-13T10:01:11.701Z,11.0
2023-04-13T10:02:11.724Z,9.3
2023-04-13T10:03:12.000Z,13.0
2023-04-13T10:04:11.710Z,10.3
2023-04-13T10:05:11.815Z,14.4
2023-04-13T10:06:11.665Z,9.9
2023-04-13T10:07:11.618Z,10.3
2023-04-13T10:08:11.637Z,10.4
2023-04-13T10:09:11.819Z,11.3
2023-04-13T10:10:11.602Z,9.4
2023-04-13T10:11:11.608Z,8.7
2023-04-13T10:12:11.809Z,10.3
2023-04-13T10:13:13.745Z,9.8
2023-04-13T10:14:11.769Z,14.5
2023-04-13T10:15:11.635Z,9.6
2023-04-13T10:16:13.135Z,10.4
2023-04-13T10:17:11.629Z,11.5
2023-04-13T10:18:11.741Z,10.1
2023-04-13T10:19:11.627Z,8.8
2023-04-13T10:20:11.654Z,10.5
2023-04-13T10:21:11.652Z,9.2
2023-04-13T10:22:11.633Z,11.3
2023-04-13T10:23:11.717Z,10.7
2023-04-13T10:24:12.316Z,8.1
2023-04-13T10:25:18.626Z,11.1
2023-04-13T10:26:11.618Z,9.7
2023-04-13T10:27:11.621Z,10.1
2023-04-13T10:28:11.612Z,9.9
2023-04-13T10:29:11.681Z,8.6
2023-04-13T10:30:11.703Z,11.9
2023-04-13T10:31:11.679Z,13.7
2023-04-13T10:32:11.698Z,11.1
2023-04-13T10:33:11.611Z,9.5
2023-04-13T10:34:11.621Z,8.6
2023-04-13T10:35:11.625Z,8.0
2023-04-13T10:36:11.773Z,9.1
2023-04-13T10:37:11.578Z,10.0
2023-04-13T10:38:11.614Z,7.9
2023-04-13T10:39:14.439Z,10.5
2023-04-13T10:40:11.650Z,10.3
2023-04-13T10:41:11.552Z,8.2
2023-04-13T10:42:11.564Z,11.7
2023-04-13T10:43:11.581Z,8.0
2023-04-13T10:44:11.587Z,9.7
2023-04-13T10:45:11.638Z,9.4
2023-04-13T10:46:11.621Z,8.9
2023-04-13T10:47:11.854Z,10.2
2023-04-13T10:48:11.636Z,7.4
2023-04-13T10:49:11.644Z,8.0
2023-04-13T10:50:11.572Z,10.0
2023-04-13T10:51:11.568Z,10.0
2023-04-13T10:52:11.672Z,8.8
2023-04-13T10:53:11.587Z,8.1
2023-04-13T10:54:11.554Z,10.0
2023-04-13T10:55:11.597Z,11.0
2023-04-13T10:56:11.603Z,8.9
2023-04-13T10:57:11.641Z,10.9
2023-04-13T10:58:11.686Z,11.0
2023-04-13T10:59:22.109Z,7.6
2023-04-13T11:00:12.286Z,10.3
2023-04-13T11:01:11.554Z,12.6
2023-04-13T11:02:11.677Z,7.6
2023-04-13T11:03:11.705Z,9.7
2023-04-13T11:04:15.881Z,9.7
2023-04-13T11:05:11.517Z,11.2
2023-04-13T11:06:11.578Z,8.5
2023-04-13T11:07:11.570Z,8.6
2023-04-13T11:08:11.556Z,11.6
2023-04-13T11:09:14.394Z,8.3
2023-04-13T11:10:11.595Z,8.6
2023-04-13T11:11:14.782Z,14.6
2023-04-13T11:12:11.571Z,9.2
2023-04-13T11:13:11.526Z,7.9
2023-04-13T11:14:11.529Z,9.5
2023-04-13T11:15:11.532Z,10.3
2023-04-13T11:16:11.625Z,9.6
2023-04-13T11:17:11.576Z,11.1
2023-04-13T11:18:11.598Z,9.3
2023-04-13T11:19:11.547Z,9.8
2023-04-13T11:21:11.592Z,9.9
2023-04-13T11:22:13.489Z,12.6
2023-04-13T11:23:13.062Z,11.3
2023-04-13T11:24:11.547Z,9.3
2023-04-13T11:25:11.557Z,8.9
2023-04-13T11:26:11.716Z,9.9
2023-04-13T11:27:11.541Z,9.0
2023-04-13T11:28:11.651Z,9.2
2023-04-13T11:29:11.577Z,10.8
2023-04-13T11:30:11.863Z,10.5
2023-04-13T11:31:11.918Z,9.1
2023-04-13T11:32:11.689Z,10.5
2023-04-13T11:33:11.594Z,7.4
2023-04-13T11:34:11.497Z,6.9
2023-04-13T11:35:11.520Z,11.4
2023-04-13T11:36:11.610Z,7.9
2023-04-13T11:37:11.546Z,10.4
2023-04-13T11:38:11.650Z,12.6
2023-04-13T11:39:11.499Z,10.7
2023-04-13T11:40:11.529Z,10.7
2023-04-13T11:41:17.074Z,11.3
2023-04-13T11:42:11.494Z,13.1
2023-04-13T11:43:11.519Z,10.2
2023-04-13T11:44:13.439Z,10.7
2023-04-13T11:45:11.573Z,10.4
2023-04-13T11:46:11.563Z,9.7
2023-04-13T11:47:11.497Z,11.8
2023-04-13T11:48:11.529Z,10.9
2023-04-13T11:49:11.501Z,9.7
2023-04-13T11:50:12.450Z,10.7
2023-04-13T11:51:11.856Z,13.2
2023-04-13T11:52:11.510Z,10.8
2023-04-13T11:53:11.624Z,10.6
2023-04-13T11:54:11.496Z,15.0
2023-04-13T11:55:22.188Z,11.3
2023-04-13T11:56:11.478Z,10.7
2023-04-13T11:57:11.459Z,13.5
2023-04-13T11:58:11.500Z,9.9
2023-04-13T11:59:11.527Z,10.6
2023-04-13T12:00:11.606Z,10.4
2023-04-13T12:01:14.401Z,15.4
2023-04-13T12:02:20.865Z,15.9
2023-04-13T12:03:28.047Z,12.3
2023-04-13T12:04:16.281Z,9.3
2023-04-13T12:05:12.896Z,9.4
2023-04-13T12:06:14.821Z,10.1
2023-04-13T12:07:11.819Z,9.4
2023-04-13T12:08:12.123Z,13.7
2023-04-13T12:09:14.161Z,8.3
2023-04-13T12:10:22.529Z,10.5
2023-04-13T12:12:46.310Z,10.3
2023-04-13T12:14:15.255Z,10.0
2023-04-13T12:15:23.047Z,10.6
2023-04-13T12:16:17.564Z,10.0
2023-04-13T12:17:30.412Z,9.9
2023-04-13T12:18:15.175Z,13.1
2023-04-13T12:19:13.660Z,12.7
2023-04-13T12:20:12.367Z,11.0
2023-04-13T12:21:11.513Z,11.3
2023-04-13T12:22:12.197Z,11.1
2023-04-13T12:23:18.977Z,12.3
2023-04-13T12:24:11.750Z,9.9
2023-04-13T12:28:13.508Z,11.7
2023-04-13T12:29:11.915Z,11.1
2023-04-13T12:30:11.459Z,10.3
2023-04-13T12:31:11.598Z,10.9
2023-04-13T12:32:11.523Z,10.5
2023-04-13T12:33:11.412Z,11.5
2023-04-13T12:34:11.475Z,9.9
2023-04-13T12:35:11.463Z,9.8
2023-04-13T12:36:11.907Z,10.3
2023-04-13T12:37:11.782Z,10.0
2023-04-13T12:38:11.458Z,13.6
2023-04-13T12:39:11.525Z,9.7
2023-04-13T12:40:11.478Z,8.9
2023-04-13T12:41:11.489Z,9.8
2023-04-13T12:42:12.752Z,9.2
2023-04-13T12:45:11.604Z,9.6
2023-04-13T12:46:11.496Z,11.0
2023-04-13T12:47:11.564Z,11.3
2023-04-13T12:48:11.568Z,10.0
2023-04-13T12:49:11.444Z,11.5
2023-04-13T12:50:11.443Z,10.3
2023-04-13T12:51:11.545Z,10.3
2023-04-13T12:52:11.517Z,9.3
2023-04-13T12:53:11.411Z,8.1
2023-04-13T12:54:11.441Z,9.0
2023-04-13T12:55:11.449Z,12.3
2023-04-13T12:56:11.420Z,11.9
2023-04-13T12:57:11.692Z,9.3
2023-04-13T12:58:11.426Z,9.3
2023-04-13T12:59:11.418Z,10.1
2023-04-13T13:00:11.495Z,10.3
2023-04-13T13:01:11.477Z,11.0
2023-04-13T13:02:11.477Z,9.4
2023-04-13T13:03:14.430Z,10.4
2023-04-13T13:04:11.507Z,10.4
2023-04-13T13:05:11.445Z,10.3
2023-04-13T13:06:11.581Z,11.9
2023-04-13T13:07:11.596Z,11.6
2023-04-13T13:08:11.408Z,8.6
2023-04-13T13:09:11.406Z,13.6
2023-04-13T13:10:25.998Z,11.1
2023-04-13T13:11:11.418Z,12.1
2023-04-13T13:12:11.519Z,12.5
2023-04-13T13:13:11.425Z,12.2
2023-04-13T13:14:11.537Z,11.0
2023-04-13T13:15:11.493Z,11.6
2023-04-13T13:16:11.467Z,9.9
2023-04-13T13:17:11.847Z,10.5
2023-04-13T13:18:11.460Z,10.4
2023-04-13T13:19:11.492Z,9.2
2023-04-13T13:20:11.418Z,9.3
2023-04-13T13:21:11.455Z,9.4
2023-04-13T13:22:11.437Z,9.5
2023-04-13T13:23:11.507Z,9.3
2023-04-13T13:24:11.388Z,8.4
2023-04-13T13:25:11.393Z,11.4
2023-04-13T13:27:48.616Z,14.0
2023-04-13T13:28:14.845Z,12.6
2023-04-13T13:29:11.499Z,10.0
2023-04-13T13:30:11.536Z,10.8
2023-04-13T13:31:11.414Z,10.9
2023-04-13T13:32:11.462Z,11.4
2023-04-13T13:33:12.158Z,10.3